Terminal Aerodrome Forecast
Issued by NWS

Home | Current Version | Previous Version | Text Only | Print | Product List | Glossary On
Versions: 1 2 3 4 5 6 7 8 9 10 11 12 13 14 15 16 17 18 19 20 21 22 23 24 25 26
000
FTUS41 KGYX 181738
TAFPSM
TAF
KPSM 181738Z 1818/1918 18006KT P6SM BKN200
     FM190200 16006KT 4SM -RA BR OVC015
     FM190700 16007KT 2SM -RA BR OVC007 WS020/20035KT
     FM191300 20010G17KT P6SM -SHRA BKN015=

USA.gov is the U.S. government's official web portal to all federal, state and local government web resources and services.